SBVT/VIX METAR and TAF weather

Enter ICAO airport designator
Station Type Date Time Source
SBVT METAR 2019/12/08 17:00 UTC NOAA

SBVT 081700Z 16010KT 9999 FEW030 BKN090 25/19 Q1016


Station Type Date Time Source
SBVT Decoded METAR 2019/12/08 17:00 UTC NOAA

Vitoria Aeroporto , Brazil (SBVT) 20-16S 040-17W 4M
Dec 08, 2019 - 12:00 PM EST / 2019.12.08 1700 UTC
Wind: from the SSE (160 degrees) at 12 MPH (10 KT):0
Visibility: greater than 7 mile(s):0
Sky conditions: mostly cloudy
Temperature: 77 F (25 C)
Dew Point: 66 F (19 C)
Relative Humidity: 69%
Pressure (altimeter): 30.00 in. Hg (1016 hPa)
ob: SBVT 081700Z 16010KT 9999 FEW030 BKN090 25/19 Q1016
cycle: 17

Station Type Date Time Source
SBVT TAF 2019/12/08 18:57 UTC NOAA

TAF SBVT 081600Z 0818/0918 18010KT 9999 SCT040 TN22/0904Z TX28/0915Z
BECMG 0822/0824 30005KT FEW015
BECMG 0905/0907 23005KT
BECMG 0911/0913 18008KT SCT040
BECMG 0914/0916 06010KT
RMK PEH

Example: see airport list